Time;durP1;ratioP1;P1;durP2;ratioP2;P2;SDS_P1;SDS_P2;PMS_P1;PMS_P2;Temp;Humidity;BMP_temperature;BMP_pressure;BME280_temperature;BME280_humidity;BME280_pressure;Samples;Min_cycle;Max_cycle;Signal;HPM_P1;HPM_P2
2022/06/09 00:01:09;;;;;;;11.75;5.45;;;14.70;99.90;;;;;;5043848;28;20032;-79
2022/06/09 00:03:40;;;;;;;11.60;5.53;;;14.70;99.90;;;;;;5059452;28;20048;-79
2022/06/09 00:06:09;;;;;;;10.20;5.40;;;14.60;99.90;;;;;;5058215;28;20024;-79
2022/06/09 00:08:38;;;;;;;9.63;4.57;;;14.60;99.90;;;;;;5033989;28;20031;-83
2022/06/09 00:11:07;;;;;;;10.27;4.15;;;14.50;99.90;;;;;;5067169;28;20123;-83
2022/06/09 00:13:35;;;;;;;15.38;5.43;;;14.50;99.90;;;;;;5066816;28;20484;-83
2022/06/09 00:16:02;;;;;;;14.23;5.93;;;14.40;99.90;;;;;;5080696;28;20044;-83
2022/06/09 00:18:28;;;;;;;6.93;3.63;;;14.40;99.90;;;;;;5049805;28;20027;-84
2022/06/09 00:20:55;;;;;;;13.00;6.28;;;14.30;99.90;;;;;;5051376;28;20518;-83
2022/06/09 00:23:21;;;;;;;11.27;5.00;;;14.20;99.90;;;;;;5042830;28;20056;-83
2022/06/09 00:25:48;;;;;;;11.90;5.40;;;14.20;99.90;;;;;;5053736;28;20471;-84
2022/06/09 00:28:16;;;;;;;14.80;5.72;;;14.20;99.90;;;;;;5055777;28;20501;-83
2022/06/09 00:30:42;;;;;;;10.50;5.03;;;14.20;99.90;;;;;;5051082;28;20040;-83
2022/06/09 00:33:08;;;;;;;11.35;6.10;;;14.10;99.90;;;;;;5051591;28;20032;-83
2022/06/09 00:35:35;;;;;;;15.93;6.97;;;14.10;99.90;;;;;;5058318;28;20028;-84
2022/06/09 00:38:02;;;;;;;9.93;5.03;;;14.10;99.90;;;;;;5057141;28;20029;-84
2022/06/09 00:40:29;;;;;;;11.63;4.63;;;14.10;99.90;;;;;;5076496;28;20024;-83
2022/06/09 00:42:59;;;;;;;10.25;3.58;;;14.00;99.90;;;;;;5086320;28;20407;-83
2022/06/09 00:45:38;;;;;;;8.75;3.42;;;14.00;99.90;;;;;;5050036;28;20368;-83
2022/06/09 00:48:25;;;;;;;6.57;2.05;;;14.00;99.90;;;;;;5087652;28;20118;-84
2022/06/09 00:51:10;;;;;;;13.05;3.60;;;14.00;99.90;;;;;;5060602;28;20035;-84
2022/06/09 00:53:40;;;;;;;7.63;3.13;;;14.10;99.90;;;;;;5084768;28;20043;-84
2022/06/09 00:56:09;;;;;;;5.15;2.70;;;14.00;99.90;;;;;;5044586;28;20044;-84
2022/06/09 00:58:38;;;;;;;9.18;2.75;;;14.10;99.90;;;;;;5101113;28;20035;-84
2022/06/09 01:01:13;;;;;;;6.50;2.53;;;14.10;99.90;;;;;;5078518;28;20034;-84
2022/06/09 01:03:45;;;;;;;11.15;3.47;;;14.10;99.90;;;;;;5090750;28;20032;-84
2022/06/09 01:06:23;;;;;;;10.45;3.72;;;14.00;99.90;;;;;;5081617;28;20047;-84
2022/06/09 01:08:58;;;;;;;9.55;3.25;;;14.10;99.90;;;;;;5067445;28;20028;-84
2022/06/09 01:11:25;;;;;;;9.70;2.42;;;14.00;99.90;;;;;;5062204;28;20027;-84
2022/06/09 01:13:54;;;;;;;7.07;3.55;;;14.00;99.90;;;;;;5056506;28;20525;-84
2022/06/09 01:16:24;;;;;;;8.07;2.60;;;14.00;99.90;;;;;;5053969;28;20036;-84
2022/06/09 01:19:35;;;;;;;8.57;3.38;;;14.00;99.90;;;;;;5086889;28;20035;-84
2022/06/09 01:22:38;;;;;;;10.55;2.50;;;14.00;99.90;;;;;;5033452;28;20472;-83
2022/06/09 01:25:16;;;;;;;8.18;3.63;;;13.90;99.90;;;;;;4997635;28;20045;-84
2022/06/09 01:28:10;;;;;;;6.82;2.67;;;13.90;99.90;;;;;;5069758;28;20042;-84
2022/06/09 01:31:04;;;;;;;8.88;2.10;;;13.80;99.90;;;;;;5066541;28;20032;-84
2022/06/09 01:33:52;;;;;;;10.23;2.78;;;13.80;99.90;;;;;;5068038;28;20043;-84
2022/06/09 01:36:48;;;;;;;10.38;3.30;;;13.70;99.90;;;;;;5055839;28;20036;-84
2022/06/09 01:39:15;;;;;;;10.57;2.42;;;13.70;99.90;;;;;;5071340;28;20040;-84
2022/06/09 01:41:48;;;;;;;9.93;3.88;;;13.70;99.90;;;;;;5070982;28;20036;-84
2022/06/09 01:44:17;;;;;;;10.88;3.58;;;13.60;99.90;;;;;;5083185;28;20036;-84
2022/06/09 01:46:46;;;;;;;7.60;2.58;;;13.60;99.90;;;;;;5074143;28;20360;-83
2022/06/09 01:49:22;;;;;;;10.02;2.70;;;13.60;99.90;;;;;;5047459;28;20039;-83
2022/06/09 01:51:51;;;;;;;8.23;3.13;;;13.60;99.90;;;;;;5069840;28;20043;-83
2022/06/09 01:54:27;;;;;;;10.70;3.47;;;13.60;99.90;;;;;;5070825;28;20051;-84
2022/06/09 01:57:03;;;;;;;9.10;2.58;;;13.50;99.90;;;;;;5068467;28;20032;-83
2022/06/09 01:59:35;;;;;;;12.45;2.85;;;13.50;99.90;;;;;;5069342;28;20355;-83
2022/06/09 02:02:16;;;;;;;7.85;2.22;;;13.50;99.90;;;;;;5069703;28;20039;-84
2022/06/09 02:05:06;;;;;;;6.57;2.17;;;13.50;99.90;;;;;;5055604;28;20037;-84
2022/06/09 02:07:36;;;;;;;10.48;2.97;;;13.50;99.90;;;;;;5050800;28;20039;-83
2022/06/09 02:10:43;;;;;;;11.07;3.25;;;13.50;99.90;;;;;;5035750;28;20028;-84
2022/06/09 02:13:20;;;;;;;13.27;4.28;;;13.40;99.90;;;;;;5068624;28;20394;-84
2022/06/09 02:15:50;;;;;;;12.20;3.60;;;13.40;99.90;;;;;;5055868;28;20032;-84
2022/06/09 02:18:21;;;;;;;10.75;2.92;;;13.40;99.90;;;;;;5068708;28;20033;-84
2022/06/09 02:20:55;;;;;;;15.50;3.60;;;13.40;99.90;;;;;;5082287;28;20030;-84
2022/06/09 02:23:22;;;;;;;10.38;2.83;;;13.40;99.90;;;;;;5063374;28;20079;-84
2022/06/09 02:25:55;;;;;;;10.98;2.85;;;13.30;99.90;;;;;;5040009;28;20048;-84
2022/06/09 02:28:24;;;;;;;8.27;3.22;;;13.30;99.90;;;;;;5053678;28;20031;-84
2022/06/09 02:30:52;;;;;;;12.13;3.47;;;13.30;99.90;;;;;;5036831;28;20036;-85
2022/06/09 02:33:20;;;;;;;12.55;3.28;;;13.20;99.90;;;;;;5086162;28;20031;-84
2022/06/09 02:35:48;;;;;;;10.55;3.13;;;13.20;99.90;;;;;;5051418;28;20031;-85
2022/06/09 02:38:16;;;;;;;5.53;2.75;;;13.20;99.90;;;;;;5085821;28;20491;-84
2022/06/09 02:40:43;;;;;;;10.70;3.72;;;13.10;99.90;;;;;;5067596;28;20039;-84
2022/06/09 02:43:10;;;;;;;8.25;2.83;;;13.10;99.90;;;;;;5069647;28;20039;-84
2022/06/09 02:45:36;;;;;;;12.80;3.38;;;13.00;99.90;;;;;;5031817;28;20031;-83
2022/06/09 02:48:03;;;;;;;10.95;2.88;;;13.00;99.90;;;;;;5043557;28;20388;-84
2022/06/09 02:50:30;;;;;;;8.55;2.58;;;13.00;99.90;;;;;;5073075;28;20043;-84
2022/06/09 02:52:58;;;;;;;6.15;1.80;;;13.00;99.90;;;;;;5056330;28;20043;-84
2022/06/09 02:55:26;;;;;;;11.65;3.00;;;13.00;99.90;;;;;;5051629;28;20035;-84
2022/06/09 02:57:53;;;;;;;15.18;3.80;;;12.90;99.90;;;;;;5053085;28;20039;-84
2022/06/09 03:00:20;;;;;;;7.97;2.63;;;12.90;99.90;;;;;;5038956;28;20043;-84
2022/06/09 03:02:58;;;;;;;13.63;3.72;;;13.00;99.90;;;;;;5050508;28;20032;-84
2022/06/09 03:05:26;;;;;;;8.23;3.55;;;13.00;99.90;;;;;;5046976;28;20029;-84
2022/06/09 03:07:54;;;;;;;12.95;3.83;;;13.00;99.90;;;;;;5053667;28;20036;-84
2022/06/09 03:10:20;;;;;;;12.38;3.75;;;13.00;99.90;;;;;;5050118;28;20020;-83
2022/06/09 03:12:47;;;;;;;9.38;3.22;;;13.00;99.90;;;;;;5067259;28;20028;-84
2022/06/09 03:15:16;;;;;;;10.70;3.13;;;13.00;99.90;;;;;;5056411;28;20028;-84
2022/06/09 03:17:43;;;;;;;7.38;1.77;;;13.00;99.90;;;;;;5054989;28;20415;-84
2022/06/09 03:20:14;;;;;;;16.75;3.10;;;13.00;99.90;;;;;;5039743;28;20043;-84
2022/06/09 03:22:40;;;;;;;13.38;3.10;;;13.10;99.90;;;;;;5046064;28;20043;-84
2022/06/09 03:25:07;;;;;;;13.52;2.97;;;13.10;99.90;;;;;;5047526;28;20052;-84
2022/06/09 03:27:34;;;;;;;11.68;2.58;;;13.10;99.90;;;;;;5052968;28;20024;-84
2022/06/09 03:30:01;;;;;;;13.38;3.25;;;13.10;99.90;;;;;;5068633;28;20043;-84
2022/06/09 03:32:28;;;;;;;12.50;4.07;;;13.10;99.90;;;;;;5053230;28;20032;-84
2022/06/09 03:34:55;;;;;;;12.52;4.70;;;13.20;99.90;;;;;;5050148;28;20028;-84
2022/06/09 03:37:22;;;;;;;11.45;3.30;;;13.30;99.90;;;;;;5050478;28;20032;-84
2022/06/09 03:39:48;;;;;;;12.00;3.63;;;13.30;99.90;;;;;;5070875;28;20526;-85
2022/06/09 03:42:15;;;;;;;14.15;3.25;;;13.40;99.90;;;;;;5053015;28;20051;-84
2022/06/09 03:44:41;;;;;;;9.30;3.33;;;13.40;99.90;;;;;;5052823;28;20039;-85
2022/06/09 03:47:10;;;;;;;11.93;3.08;;;13.50;99.90;;;;;;5056468;28;20036;-85
2022/06/09 03:49:37;;;;;;;13.45;3.38;;;13.50;99.90;;;;;;5042266;28;20047;-85
2022/06/09 03:52:04;;;;;;;12.07;3.53;;;13.50;99.90;;;;;;5048072;28;20036;-85
2022/06/09 03:54:31;;;;;;;8.43;2.90;;;13.50;99.90;;;;;;5065953;28;20028;-86
2022/06/09 03:56:57;;;;;;;7.95;1.77;;;13.60;99.90;;;;;;5067082;28;20036;-85
2022/06/09 03:59:24;;;;;;;13.13;3.10;;;13.70;99.90;;;;;;5051916;28;20036;-85
2022/06/09 04:01:50;;;;;;;12.77;3.63;;;13.70;99.90;;;;;;5054578;28;20036;-85
2022/06/09 04:04:17;;;;;;;11.98;3.05;;;13.80;99.90;;;;;;5044644;28;20032;-85
2022/06/09 04:06:43;;;;;;;6.93;2.85;;;13.90;99.90;;;;;;5067253;28;20029;-85
2022/06/09 04:09:11;;;;;;;10.07;2.67;;;14.00;99.90;;;;;;5021321;28;20048;-85
2022/06/09 04:11:37;;;;;;;14.40;3.65;;;14.00;99.90;;;;;;5071182;28;20039;-86
2022/06/09 04:14:03;;;;;;;10.25;2.47;;;14.10;99.90;;;;;;5038583;28;20047;-85
2022/06/09 04:16:40;;;;;;;13.23;3.50;;;14.10;99.90;;;;;;5053549;28;20052;-85
2022/06/09 04:19:09;;;;;;;9.60;3.05;;;14.10;99.90;;;;;;5050896;28;20029;-85
2022/06/09 04:21:37;;;;;;;10.32;2.92;;;14.20;99.90;;;;;;5049999;28;20058;-85
2022/06/09 04:24:04;;;;;;;11.60;3.53;;;14.20;99.90;;;;;;5042728;28;20060;-80
2022/06/09 04:26:33;;;;;;;12.57;3.92;;;14.30;99.90;;;;;;5063368;28;20032;-81
2022/06/09 04:29:00;;;;;;;11.32;3.53;;;14.40;99.90;;;;;;5058292;28;20032;-80
2022/06/09 04:31:27;;;;;;;11.68;3.53;;;14.50;99.90;;;;;;5050236;28;20033;-86
2022/06/09 04:33:53;;;;;;;9.80;2.95;;;14.60;99.90;;;;;;5085099;28;20028;-86
2022/06/09 04:36:20;;;;;;;12.35;3.47;;;14.60;99.90;;;;;;5050154;28;20055;-86
2022/06/09 04:38:46;;;;;;;10.07;2.65;;;14.70;99.90;;;;;;5072692;28;20040;-86
2022/06/09 04:41:15;;;;;;;12.77;3.10;;;14.70;99.90;;;;;;5052189;28;20032;-87
2022/06/09 04:43:45;;;;;;;6.30;2.75;;;14.80;99.90;;;;;;5047243;28;20027;-87
2022/06/09 04:46:14;;;;;;;8.73;2.67;;;14.80;99.90;;;;;;5050765;28;20036;-87
2022/06/09 04:48:41;;;;;;;12.63;3.60;;;14.90;99.90;;;;;;5067435;28;20042;-87
2022/06/09 04:51:09;;;;;;;10.20;2.78;;;15.00;99.90;;;;;;5018976;28;20055;-88
2022/06/09 04:53:36;;;;;;;11.05;2.50;;;15.10;99.90;;;;;;5054673;28;20024;-87
2022/06/09 04:56:03;;;;;;;7.40;1.92;;;15.20;99.90;;;;;;5035434;28;20040;-87
2022/06/09 04:58:30;;;;;;;5.90;2.20;;;15.30;99.90;;;;;;5038414;28;20040;-87
2022/06/09 05:00:56;;;;;;;11.20;3.15;;;15.30;99.90;;;;;;5041893;28;20036;-87
2022/06/09 05:03:23;;;;;;;12.13;3.20;;;15.40;99.90;;;;;;5046932;28;20040;-87
2022/06/09 05:05:51;;;;;;;11.27;3.20;;;15.30;99.90;;;;;;5048602;28;20035;-87
2022/06/09 05:08:18;;;;;;;5.88;2.30;;;15.20;99.90;;;;;;5050107;28;20028;-86
2022/06/09 05:10:46;;;;;;;11.18;2.65;;;15.10;99.90;;;;;;5068123;28;20052;-87
2022/06/09 05:13:14;;;;;;;7.45;2.40;;;15.00;99.90;;;;;;5048089;28;20036;-86
2022/06/09 05:15:56;;;;;;;10.88;2.38;;;15.00;99.90;;;;;;5056123;28;20024;-86
2022/06/09 05:18:28;;;;;;;12.55;2.47;;;15.10;99.90;;;;;;5065650;28;20036;-86
2022/06/09 05:20:58;;;;;;;13.00;2.63;;;15.30;99.90;;;;;;5063493;28;20031;-84
2022/06/09 05:23:27;;;;;;;7.50;1.83;;;15.60;99.90;;;;;;5046298;28;20435;-85
2022/06/09 05:25:56;;;;;;;9.63;2.85;;;15.70;99.90;;;;;;5057852;28;20479;-84
2022/06/09 05:28:24;;;;;;;9.15;3.00;;;15.80;99.90;;;;;;5075310;28;20016;-84
2022/06/09 05:30:51;;;;;;;10.10;3.10;;;15.90;99.90;;;;;;5045899;28;20028;-86
2022/06/09 05:33:18;;;;;;;6.47;1.95;;;16.10;99.90;;;;;;5057406;28;20024;-84
2022/06/09 05:35:44;;;;;;;11.07;2.47;;;16.30;99.90;;;;;;5062125;28;20344;-84
2022/06/09 05:46:34;;;;;;;5.55;1.90;;;16.70;99.90;;;;;;5062277;28;20037;-86
2022/06/09 05:49:01;;;;;;;8.60;2.08;;;16.80;99.90;;;;;;5051462;28;20483;-85
2022/06/09 05:51:27;;;;;;;6.50;2.42;;;16.90;99.90;;;;;;5051739;28;20033;-84
2022/06/09 05:53:54;;;;;;;8.48;2.40;;;17.00;99.90;;;;;;5035181;28;20044;-85
2022/06/09 05:56:20;;;;;;;8.70;1.90;;;17.10;99.90;;;;;;5080721;28;20051;-84
2022/06/09 05:58:47;;;;;;;9.57;1.85;;;17.20;99.90;;;;;;5053823;28;20048;-86
2022/06/09 06:01:14;;;;;;;6.93;1.63;;;17.30;99.90;;;;;;5045298;28;20051;-85
2022/06/09 06:03:42;;;;;;;6.82;1.45;;;17.30;99.90;;;;;;5051568;28;20483;-86
2022/06/09 06:08:53;;;;;;;8.50;1.33;;;17.10;99.90;;;;;;5055500;28;20039;-85
2022/06/09 06:11:20;;;;;;;6.10;1.48;;;17.20;99.90;;;;;;5062011;28;20021;-87
2022/06/09 06:13:47;;;;;;;8.35;1.52;;;17.40;99.90;;;;;;5050397;28;20348;-86
2022/06/09 06:16:13;;;;;;;6.45;1.30;;;17.50;99.90;;;;;;5062077;28;20039;-86
2022/06/09 06:18:40;;;;;;;7.75;1.75;;;17.60;99.90;;;;;;5033664;28;20044;-86
2022/06/09 06:21:06;;;;;;;7.82;1.70;;;17.60;99.90;;;;;;5071295;28;20047;-82
2022/06/09 06:23:33;;;;;;;6.28;1.10;;;17.80;99.90;;;;;;5039852;28;20153;-82
2022/06/09 06:26:00;;;;;;;4.40;0.90;;;18.00;99.90;;;;;;5067985;28;20036;-84
2022/06/09 06:28:27;;;;;;;4.13;0.90;;;18.00;99.90;;;;;;5050684;28;20032;-85
2022/06/09 06:30:53;;;;;;;3.45;0.93;;;17.90;99.90;;;;;;5046496;28;20033;-85
2022/06/09 06:33:20;;;;;;;3.92;1.00;;;18.00;99.90;;;;;;5030939;28;20028;-85
2022/06/09 06:35:47;;;;;;;6.63;1.15;;;18.20;99.90;;;;;;5052110;28;20048;-85
2022/06/09 06:38:15;;;;;;;4.05;0.90;;;18.30;99.90;;;;;;5052000;28;20047;-85
2022/06/09 06:40:42;;;;;;;3.50;0.70;;;18.40;99.90;;;;;;5041833;28;20031;-84
2022/06/09 06:43:08;;;;;;;5.43;0.90;;;18.50;99.90;;;;;;5034308;28;20044;-84
2022/06/09 06:45:36;;;;;;;4.97;0.77;;;18.70;99.90;;;;;;5052349;28;20031;-84
2022/06/09 06:48:05;;;;;;;6.40;1.10;;;18.80;99.90;;;;;;5069694;28;20041;-84
2022/06/09 06:50:35;;;;;;;2.47;0.52;;;18.90;99.90;;;;;;5049813;28;20487;-84
2022/06/09 06:53:02;;;;;;;5.90;1.00;;;18.90;99.90;;;;;;5030137;28;20036;-84
2022/06/09 06:55:29;;;;;;;3.95;0.82;;;19.00;99.90;;;;;;5052245;28;20039;-85
2022/06/09 06:57:56;;;;;;;5.22;0.95;;;19.10;99.90;;;;;;5051617;28;20048;-84
2022/06/09 07:00:24;;;;;;;4.13;0.80;;;19.20;99.90;;;;;;5023285;28;20182;-83
2022/06/09 07:02:52;;;;;;;2.40;0.70;;;19.20;99.90;;;;;;5065636;28;20349;-83
2022/06/09 07:05:20;;;;;;;4.05;0.80;;;19.20;99.90;;;;;;5048006;28;20042;-82
2022/06/09 07:07:49;;;;;;;4.03;0.70;;;19.20;99.90;;;;;;5049170;28;20490;-83
2022/06/09 07:10:16;;;;;;;3.22;0.70;;;19.30;99.90;;;;;;5050683;28;20380;-82
2022/06/09 07:12:42;;;;;;;3.83;0.70;;;19.50;99.90;;;;;;5050024;28;20012;-82
2022/06/09 07:15:11;;;;;;;3.90;0.50;;;19.70;99.90;;;;;;5031854;28;20032;-82
2022/06/09 07:17:37;;;;;;;2.80;0.70;;;19.80;99.90;;;;;;5066502;28;20039;-82
2022/06/09 07:20:07;;;;;;;3.50;0.70;;;19.90;99.90;;;;;;5047792;28;20056;-82
2022/06/09 07:22:36;;;;;;;3.85;0.50;;;19.80;99.90;;;;;;5036235;28;20793;-82
2022/06/09 07:25:05;;;;;;;2.08;0.60;;;19.60;99.90;;;;;;5056148;28;20052;-83
2022/06/09 07:27:32;;;;;;;1.83;0.40;;;19.50;99.90;;;;;;5049740;28;20466;-82
2022/06/09 07:29:59;;;;;;;3.80;0.63;;;19.60;99.90;;;;;;5031875;28;20028;-82
2022/06/09 07:32:25;;;;;;;2.72;0.70;;;19.70;99.90;;;;;;5069836;28;20036;-83
2022/06/09 07:34:52;;;;;;;2.58;0.50;;;19.90;99.90;;;;;;5049389;28;20047;-80
2022/06/09 07:37:18;;;;;;;5.53;1.20;;;20.10;99.90;;;;;;5034392;28;20036;-80
2022/06/09 07:39:45;;;;;;;2.28;0.50;;;20.00;99.90;;;;;;5068664;28;20020;-81
2022/06/09 07:42:12;;;;;;;2.20;0.52;;;20.00;99.90;;;;;;5053041;28;20056;-82
2022/06/09 07:44:39;;;;;;;2.63;0.85;;;20.00;99.90;;;;;;5069675;28;20020;-81
2022/06/09 07:47:06;;;;;;;4.00;0.70;;;20.10;99.90;;;;;;5057693;28;20040;-81
2022/06/09 07:49:33;;;;;;;3.28;0.82;;;20.10;99.90;;;;;;5033843;28;20041;-79
2022/06/09 07:52:00;;;;;;;4.30;1.02;;;20.20;99.90;;;;;;5067243;28;20055;-79
2022/06/09 07:54:27;;;;;;;3.72;1.13;;;20.10;99.90;;;;;;5067010;28;20025;-78
2022/06/09 07:56:53;;;;;;;3.03;0.60;;;20.00;99.90;;;;;;5052479;28;20674;-79
2022/06/09 07:59:20;;;;;;;3.75;0.85;;;20.00;99.90;;;;;;5064175;28;20028;-78
2022/06/09 08:01:46;;;;;;;3.95;0.60;;;20.20;99.90;;;;;;5065961;28;20043;-78
2022/06/09 08:04:13;;;;;;;2.17;0.45;;;20.50;99.90;;;;;;5048721;28;20040;-78
2022/06/09 08:06:40;;;;;;;3.03;0.60;;;20.50;99.90;;;;;;5067791;28;24074;-79
2022/06/09 08:09:06;;;;;;;3.58;0.60;;;20.60;99.90;;;;;;5065151;28;20039;-78
2022/06/09 08:11:35;;;;;;;3.80;0.55;;;20.50;99.90;;;;;;5039751;28;20032;-78
2022/06/09 08:14:03;;;;;;;3.25;0.50;;;20.50;99.90;;;;;;5057209;28;20035;-79
2022/06/09 08:16:30;;;;;;;2.38;0.60;;;20.70;99.90;;;;;;5071868;28;20043;-79
2022/06/09 08:18:57;;;;;;;4.43;0.68;;;21.00;99.90;;;;;;5057167;28;20028;-79
2022/06/09 08:21:24;;;;;;;2.40;0.57;;;21.30;99.90;;;;;;5073553;28;20049;-79
2022/06/09 08:23:51;;;;;;;2.00;0.50;;;21.40;99.90;;;;;;5072670;28;20040;-79
2022/06/09 08:26:17;;;;;;;1.88;0.50;;;21.30;99.90;;;;;;5054150;28;20468;-80
2022/06/09 08:28:44;;;;;;;2.60;0.50;;;21.20;99.90;;;;;;5052863;28;20040;-86
2022/06/09 08:31:10;;;;;;;1.98;0.50;;;21.10;99.90;;;;;;5064967;28;20040;-86
2022/06/09 08:33:37;;;;;;;2.72;0.88;;;21.30;99.90;;;;;;5036700;28;20028;-87
2022/06/09 08:36:04;;;;;;;5.95;0.65;;;21.50;99.90;;;;;;5028819;28;20101;-86
2022/06/09 08:38:30;;;;;;;3.55;1.15;;;21.50;99.90;;;;;;5032982;28;20487;-87
2022/06/09 08:41:00;;;;;;;2.72;0.63;;;21.30;99.90;;;;;;5063553;28;20037;-86
2022/06/09 08:43:54;;;;;;;4.63;0.60;;;21.30;99.90;;;;;;5066583;28;20028;-86
2022/06/09 08:46:53;;;;;;;2.65;0.68;;;21.50;99.90;;;;;;5051415;28;20047;-86
2022/06/09 08:49:44;;;;;;;3.17;0.50;;;21.50;99.90;;;;;;5068243;28;20027;-85
2022/06/09 08:52:25;;;;;;;2.17;0.50;;;21.30;99.90;;;;;;5035418;28;20040;-85
2022/06/09 08:54:55;;;;;;;2.70;0.50;;;21.20;99.90;;;;;;5053100;28;20031;-86
2022/06/09 08:57:32;;;;;;;3.63;0.75;;;21.10;99.90;;;;;;5028395;28;20032;-85
2022/06/09 08:59:59;;;;;;;1.50;0.63;;;21.10;99.90;;;;;;5072790;28;20024;-86
2022/06/09 09:02:34;;;;;;;2.38;0.40;;;21.00;99.90;;;;;;5028921;28;20112;-86
2022/06/09 09:05:35;;;;;;;2.15;0.50;;;21.00;99.90;;;;;;5053318;28;20470;-86
2022/06/09 09:08:06;;;;;;;3.47;0.65;;;21.10;99.90;;;;;;5032626;28;20498;-86
2022/06/09 09:10:50;;;;;;;3.58;0.50;;;21.00;99.90;;;;;;5058070;28;20031;-86
2022/06/09 09:13:28;;;;;;;2.97;0.47;;;21.10;99.90;;;;;;5033220;28;20028;-86
2022/06/09 09:15:58;;;;;;;1.85;0.63;;;21.00;99.90;;;;;;5067554;28;20055;-85
2022/06/09 09:18:38;;;;;;;2.45;0.43;;;21.00;99.90;;;;;;5053485;28;20474;-86
2022/06/09 09:21:43;;;;;;;2.63;0.35;;;21.00;99.90;;;;;;5051807;28;20047;-86
2022/06/09 09:24:33;;;;;;;4.50;0.50;;;20.90;99.90;;;;;;5034696;28;20040;-86
2022/06/09 09:27:29;;;;;;;3.60;0.50;;;20.80;99.90;;;;;;5070154;28;20047;-86
2022/06/09 09:30:05;;;;;;;3.80;0.50;;;20.60;99.90;;;;;;5057253;28;20507;-87
2022/06/09 09:32:45;;;;;;;3.05;0.47;;;20.60;99.90;;;;;;5054532;28;20032;-86
2022/06/09 09:35:22;;;;;;;4.30;0.50;;;20.90;99.90;;;;;;5069517;28;20379;-85
2022/06/09 09:37:51;;;;;;;4.28;0.55;;;21.50;99.90;;;;;;5069176;28;20036;-86
2022/06/09 09:40:26;;;;;;;4.47;0.57;;;22.00;99.90;;;;;;5075587;28;20043;-87
2022/06/09 09:42:56;;;;;;;3.05;0.40;;;22.30;99.90;;;;;;5069875;28;20210;-86
2022/06/09 09:45:38;;;;;;;4.60;0.60;;;22.50;99.90;;;;;;5071632;28;20058;-87
2022/06/09 09:48:24;;;;;;;1.80;0.40;;;22.60;99.90;;;;;;5072432;28;20027;-87
2022/06/09 09:51:03;;;;;;;2.75;0.40;;;22.70;99.90;;;;;;5056696;28;20642;-87
2022/06/09 09:53:36;;;;;;;1.98;0.45;;;22.90;99.90;;;;;;5056693;28;20032;-88
2022/06/09 09:56:32;;;;;;;3.33;0.77;;;23.10;99.90;;;;;;5074831;28;20562;-86
2022/06/09 09:59:00;;;;;;;4.13;0.60;;;23.40;99.90;;;;;;5049153;28;20079;-87
2022/06/09 10:08:35;;;;;;;3.60;0.50;;;23.40;99.90;;;;;;5052813;28;20536;-87
2022/06/09 10:10:19;;;;;;;1.25;0.30;;;21.80;99.90;;;;;;5061329;28;20048;-84
2022/06/09 10:12:46;;;;;;;3.28;0.30;;;20.30;99.90;;;;;;5087185;28;20028;-83
2022/06/09 10:15:12;;;;;;;2.13;0.40;;;19.30;99.90;;;;;;5083664;28;20024;-83
2022/06/09 10:17:58;;;;;;;1.58;0.20;;;18.70;99.90;;;;;;5081259;28;20045;-83
2022/06/09 10:20:57;;;;;;;2.20;0.30;;;18.40;99.90;;;;;;5058297;28;20030;-83
2022/06/09 10:24:05;;;;;;;2.95;0.50;;;18.20;99.90;;;;;;5060518;28;20556;-83
2022/06/09 10:26:36;;;;;;;2.78;0.43;;;18.10;99.90;;;;;;5046008;28;20506;-83
2022/06/09 10:29:20;;;;;;;1.63;0.50;;;18.00;99.90;;;;;;5060641;28;20495;-83
2022/06/09 10:31:58;;;;;;;2.65;0.70;;;18.00;99.90;;;;;;5049805;28;20036;-83
2022/06/09 10:34:34;;;;;;;2.60;0.80;;;18.00;99.90;;;;;;5061331;28;20459;-83
2022/06/09 10:37:06;;;;;;;1.90;0.43;;;18.10;99.90;;;;;;5078012;28;20043;-84
2022/06/09 10:39:43;;;;;;;;;;;18.20;99.90;;;;;;5063727;28;20044;-84
2022/06/09 10:42:39;;;;;;;1.20;0.60;;;18.20;99.90;;;;;;5078187;28;19917;-84
2022/06/09 10:45:17;;;;;;;2.13;0.60;;;18.30;99.90;;;;;;5054462;28;20508;-85
2022/06/09 10:57:51;;;;;;;6.38;0.73;;;19.00;99.90;;;;;;5024390;28;20385;-86
2022/06/09 11:00:31;;;;;;;2.25;0.60;;;19.20;99.90;;;;;;5020378;28;20068;-86
2022/06/09 11:03:00;;;;;;;3.97;0.70;;;19.30;99.90;;;;;;5057555;28;20032;-86
2022/06/09 11:05:49;;;;;;;3.80;0.60;;;19.40;99.90;;;;;;5032617;28;20052;-85
2022/06/09 11:08:30;;;;;;;4.97;0.60;;;19.50;99.90;;;;;;5038081;28;20040;-85
2022/06/09 11:11:33;;;;;;;3.60;0.82;;;19.80;99.90;;;;;;5071274;28;20374;-85
2022/06/09 11:14:23;;;;;;;5.65;0.60;;;20.50;99.90;;;;;;5068515;28;20012;-86
2022/06/09 11:17:13;;;;;;;5.25;0.60;;;20.90;99.90;;;;;;5069715;28;20020;-85
2022/06/09 11:19:49;;;;;;;5.63;0.60;;;20.90;99.90;;;;;;5040560;28;20047;-86
2022/06/09 11:22:19;;;;;;;2.17;0.50;;;21.10;99.90;;;;;;5039390;28;20039;-86
2022/06/09 11:25:15;;;;;;;4.95;0.70;;;21.50;99.90;;;;;;5051530;28;20054;-87
2022/06/09 11:28:06;;;;;;;6.40;0.70;;;22.00;99.90;;;;;;5040890;28;20420;-86
2022/06/09 11:30:52;;;;;;;4.15;0.65;;;22.10;99.90;;;;;;5045378;28;20467;-87
2022/06/09 11:33:49;;;;;;;3.15;0.60;;;22.10;99.90;;;;;;5049849;28;20031;-86
2022/06/09 11:36:29;;;;;;;4.95;0.75;;;21.80;99.90;;;;;;5036596;28;20498;-79
2022/06/09 11:39:21;;;;;;;3.67;0.50;;;21.30;99.90;;;;;;5032703;28;20077;-79
2022/06/09 11:42:18;;;;;;;4.75;0.60;;;20.80;99.90;;;;;;5049194;28;20040;-79
2022/06/09 11:44:48;;;;;;;2.55;0.40;;;20.40;99.90;;;;;;5034271;28;20051;-79
2022/06/09 11:47:21;;;;;;;3.25;0.50;;;20.20;99.90;;;;;;5035298;28;20047;-87
2022/06/09 11:49:52;;;;;;;1.83;0.47;;;20.20;99.90;;;;;;5050425;28;20024;-87
2022/06/09 11:52:22;;;;;;;3.53;0.60;;;20.40;99.90;;;;;;5047050;28;20463;-88
2022/06/09 11:54:49;;;;;;;3.08;0.40;;;20.60;99.90;;;;;;5050245;28;20024;-88
2022/06/09 11:57:21;;;;;;;3.22;0.50;;;21.40;99.90;;;;;;5066923;28;20032;-87
2022/06/09 11:59:57;;;;;;;4.38;0.40;;;22.50;99.90;;;;;;5065248;28;20035;-87
2022/06/09 12:02:42;;;;;;;5.00;0.45;;;23.10;99.90;;;;;;5066950;28;20024;-87
2022/06/09 12:05:19;;;;;;;5.75;0.80;;;22.90;99.90;;;;;;5057594;28;20048;-87
2022/06/09 12:08:12;;;;;;;4.28;0.50;;;22.60;99.90;;;;;;5049313;28;20032;-87
2022/06/09 12:11:04;;;;;;;2.83;0.38;;;22.70;99.90;;;;;;5051945;28;20035;-87
2022/06/09 12:13:36;;;;;;;3.65;0.47;;;23.50;99.90;;;;;;5065749;28;20028;-87
2022/06/09 12:16:39;;;;;;;5.00;0.43;;;23.90;99.90;;;;;;5036561;28;20054;-87
2022/06/09 12:19:19;;;;;;;4.57;0.60;;;24.30;99.90;;;;;;5050795;28;20039;-88
2022/06/09 12:21:58;;;;;;;4.57;0.60;;;25.20;99.90;;;;;;5037983;28;20032;-87
2022/06/09 12:24:32;;;;;;;1.08;0.40;;;25.90;99.90;;;;;;5068791;28;20063;-87
2022/06/09 12:27:37;;;;;;;2.88;0.45;;;26.50;99.90;;;;;;5060778;28;20028;-87
2022/06/09 12:30:03;;;;;;;3.25;0.50;;;26.80;99.30;;;;;;5025550;28;20390;-89
2022/06/09 12:32:44;;;;;;;1.92;0.30;;;27.10;97.20;;;;;;5048412;28;20387;-88
2022/06/09 12:35:34;;;;;;;2.67;0.30;;;26.60;95.70;;;;;;5079303;28;20021;-88
2022/06/09 12:38:06;;;;;;;4.40;0.65;;;25.60;95.20;;;;;;5063535;28;20032;-87
2022/06/09 12:40:40;;;;;;;2.28;0.47;;;24.70;96.60;;;;;;5070858;28;20035;-87
2022/06/09 12:43:31;;;;;;;2.47;0.40;;;24.00;97.30;;;;;;5055259;28;20043;-88
2022/06/09 12:46:17;;;;;;;4.28;0.50;;;23.60;97.50;;;;;;5068291;28;20040;-88
2022/06/09 12:48:44;;;;;;;1.50;0.40;;;24.10;95.90;;;;;;5036412;28;20024;-87
2022/06/09 12:51:22;;;;;;;2.72;0.73;;;24.80;94.00;;;;;;5068378;28;20027;-87
2022/06/09 12:53:55;;;;;;;2.15;0.30;;;25.70;92.60;;;;;;5040201;28;20337;-87
2022/06/09 12:56:42;;;;;;;2.05;0.40;;;25.80;91.10;;;;;;5051775;28;20047;-87
2022/06/09 12:59:25;;;;;;;2.28;0.40;;;26.30;90.30;;;;;;5050254;28;20037;-87
2022/06/09 13:02:02;;;;;;;3.63;0.40;;;27.00;87.90;;;;;;5071439;28;20503;-88
2022/06/09 13:04:31;;;;;;;2.25;0.43;;;27.70;84.60;;;;;;5043094;28;20036;-87
2022/06/09 13:07:00;;;;;;;3.25;0.50;;;27.70;83.20;;;;;;5070324;28;20036;-87
2022/06/09 13:09:33;;;;;;;3.25;0.57;;;28.10;82.60;;;;;;5055735;28;20028;-86
2022/06/09 13:15:04;;;;;;;3.15;0.50;;;29.70;77.10;;;;;;5052405;28;20031;-88
2022/06/09 13:17:37;;;;;;;2.25;0.40;;;30.00;75.70;;;;;;5072818;28;20476;-88
2022/06/09 13:20:13;;;;;;;5.13;0.50;;;29.50;74.30;;;;;;5051532;28;20024;-88
2022/06/09 13:22:40;;;;;;;2.45;0.52;;;28.30;76.30;;;;;;5066921;28;20051;-89
2022/06/09 13:25:20;;;;;;;2.08;0.55;;;27.20;79.60;;;;;;5038465;28;20350;-87
2022/06/09 13:27:48;;;;;;;2.72;0.50;;;26.30;81.40;;;;;;5068860;28;20043;-88
2022/06/09 13:30:48;;;;;;;3.38;0.60;;;25.80;82.90;;;;;;5068940;28;20036;-88
2022/06/09 13:33:26;;;;;;;3.00;0.40;;;25.50;83.10;;;;;;5050115;28;20037;-87
2022/06/09 13:36:07;;;;;;;1.58;0.40;;;25.00;84.30;;;;;;5069056;28;20053;-88
2022/06/09 13:38:36;;;;;;;4.55;0.60;;;24.60;85.70;;;;;;5071113;28;20028;-87
2022/06/09 13:41:28;;;;;;;3.65;0.40;;;24.20;85.80;;;;;;5069078;28;20047;-87
2022/06/09 13:44:04;;;;;;;;;;;24.80;84.60;;;;;;5058936;28;20059;-88
2022/06/09 13:46:52;;;;;;;2.92;0.50;;;25.60;82.90;;;;;;5058942;28;20275;-88